Terminal Aerodrome Forecast
Issued by NWS Louisville, KY

Home | Current Version | Previous Version | Text Only | Print | Product List | Glossary On
Versions: 1 2 3 4 5 6 7 8 9 10 11 12 13 14 15 16 17 18 19 20 21 22 23
000
FTUS43 KLMK 181100
TAFSDF
TAF
KSDF 181121Z 1812/1918 VRB04KT 6SM BR OVC008
     FM181500 29006KT P6SM OVC015
     FM181700 29006KT P6SM BKN023
     FM181900 28007KT P6SM BKN035
     FM190100 22003KT P6SM OVC030
     FM191300 21008KT P6SM SCT030=

USA.gov is the U.S. government's official web portal to all federal, state and local government web resources and services.